KART/ART METAR and TAF weather

Enter ICAO airport designator
Station Type Date Time Source
KART METAR 2021/05/14 06:56 UTC NOAA

KART 140656Z AUTO VRB03KT 10SM CLR 08/02 A3020 RMK AO2 SLP227 T00830022


Station Type Date Time Source
KART Decoded METAR 2021/05/14 06:56 UTC NOAA

WATERTOWN INTERNATIONAL AIRPORT, NY, United States (KART) 43-59N 076-02W 100M
May 14, 2021 - 02:56 AM EDT / 2021.05.14 0656 UTC
Wind: Variable at 3 MPH (3 KT):0
Visibility: 10 mile(s):0
Sky conditions: clear
Temperature: 46.9 F (8.3 C)
Dew Point: 36.0 F (2.2 C)
Relative Humidity: 65%
Pressure (altimeter): 30.2 in. Hg (1022 hPa)
ob: KART 140656Z AUTO VRB03KT 10SM CLR 08/02 A3020 RMK AO2 SLP227 T00830022
cycle: 7

Station Type Date Time Source
KART TAF 2021/05/14 06:22 UTC NOAA

TAF KART 140520Z 1406/1506 18003KT P6SM SKC
FM141400 24009KT P6SM SCT090
FM141700 24012KT P6SM SCT060
FM150000 20004KT P6SM FEW070

Example: see airport list